ADDS METAR Data INFO
IDs: Format: Raw Decoded Include TAF

Data at: 1810 UTC 19 Oct 2017

KSAA 191755Z AUTO 14011G16KT 10SM CLR 18/M10 A3013 RMK AO2
KSAA 191735Z AUTO 15012KT 10SM CLR 18/M10 A3013 RMK AO2
KSAA 191715Z AUTO 14007G10KT 10SM CLR 16/M08 A3013 RMK AO2
KSAA 191655Z AUTO 16007G18KT 10SM CLR 14/M08 A3014 RMK AO2
KSAA 191635Z AUTO 15010G16KT 10SM CLR 13/M09 A3014 RMK AO2
KSAA 191615Z AUTO 14013G18KT 122V182 10SM CLR 13/M10 A3015 RMK AO2
KSAA 191555Z AUTO 14011KT 122V182 10SM CLR 11/M09 A3015 RMK AO2
KSAA 191535Z AUTO 14009KT 112V172 10SM CLR 10/M10 A3015 RMK AO2
KSAA 191515Z AUTO 15007G14KT 10SM CLR 09/M10 A3015 RMK AO2
KSAA 191455Z AUTO 15010KT 10SM CLR 09/M10 A3015 RMK AO2
KSAA 191435Z AUTO 14011G15KT 10SM CLR 08/M10 A3015 RMK AO2
KSAA 191415Z AUTO 15011KT 10SM CLR 06/M10 A3015 RMK AO2
KSAA 191355Z AUTO 16010KT 10SM CLR 06/M10 A3014 RMK AO2
KSAA 191335Z AUTO 15011G15KT 10SM CLR 05/M10 A3014 RMK AO2
KSAA 191315Z AUTO 16012KT 10SM CLR 04/M11 A3015 RMK AO2
KSAA 191255Z AUTO 15012KT 10SM CLR 04/M11 A3016 RMK AO2
KSAA 191235Z AUTO 15014G17KT 10SM CLR 05/M11 A3015 RMK AO2
KSAA 191215Z AUTO 18005KT 10SM CLR 01/M10 A3016 RMK AO2
KSAA 191155Z AUTO 14010KT 10SM CLR 03/M10 A3016 RMK AO2
KSAA 191135Z AUTO 18003KT 10SM CLR 00/M10 A3016 RMK AO2
KSAA 191115Z AUTO 00000KT 10SM CLR 01/M10 A3017 RMK AO2
KSAA 191055Z AUTO 15007KT 10SM CLR 02/M11 A3017 RMK AO2
KSAA 191035Z AUTO 16007KT 10SM CLR 02/M10 A3017 RMK AO2
KSAA 191015Z AUTO 20004KT 10SM CLR 01/M10 A3017 RMK AO2
KSAA 190955Z AUTO 00000KT 10SM CLR 00/M10 A3017 RMK AO2
KSAA 190935Z AUTO 13007KT 10SM CLR 01/M10 A3018 RMK AO2
KSAA 190915Z AUTO 16006KT 10SM CLR 02/M11 A3018 RMK AO2
KSAA 190855Z AUTO 00000KT 10SM CLR 01/M10 A3019 RMK AO2
KSAA 190840Z AUTO 14009KT 10SM CLR 01/M10 A3019 RMK AO2
KSAA 190815Z AUTO 14005KT 10SM CLR 01/M10 A3019 RMK AO2
KSAA 190755Z AUTO 16011KT 10SM CLR 01/M10 A3019 RMK AO2
KSAA 190735Z AUTO 16003KT 10SM CLR 02/M10 A3019 RMK AO2
KSAA 190710Z AUTO 15006KT 10SM CLR 01/M10 A3019 RMK AO2
KSAA 190655Z AUTO 13006KT 10SM CLR 02/M11 A3019 RMK AO2
KSAA 190635Z AUTO 00000KT 10SM CLR 00/M10 A3020 RMK AO2
KSAA 190615Z AUTO 00000KT 10SM CLR 00/M11 A3020 RMK AO2
KSAA 190555Z AUTO 31003KT 10SM CLR 02/M11 A3020 RMK AO2
KSAA 190535Z AUTO 00000KT 10SM CLR 02/M11 A3020 RMK AO2
KSAA 190515Z AUTO 16003KT 10SM CLR 00/M10 A3020 RMK AO2
KSAA 190455Z AUTO 13005KT 10SM CLR 02/M11 A3021 RMK AO2
KSAA 190435Z AUTO 00000KT 10SM CLR 00/M10 A3021 RMK AO2
KSAA 190415Z AUTO 34003KT 10SM CLR 01/M11 A3022 RMK AO2
KSAA 190355Z AUTO 12005KT 10SM CLR 00/M11 A3022 RMK AO2
KSAA 190330Z AUTO 00000KT 10SM CLR 02/M10 A3022 RMK AO2
KSAA 190315Z AUTO 08003KT 10SM CLR 02/M11 A3022 RMK AO2
KSAA 190255Z AUTO 00000KT 10SM CLR 03/M11 A3022 RMK AO2
KSAA 190235Z AUTO 16006KT 10SM CLR 03/M10 A3022 RMK AO2
KSAA 190215Z AUTO 27004KT 10SM CLR 03/M10 A3022 RMK AO2
KSAA 190155Z AUTO 00000KT 10SM CLR 06/M12 A3022 RMK AO2
KSAA 190135Z AUTO 21010KT 10SM CLR 07/M11 A3022 RMK AO2
KSAA 190115Z AUTO 19006KT 10SM CLR 07/M12 A3023 RMK AO2
KSAA 190055Z AUTO 23007KT 10SM CLR 08/M13 A3023 RMK AO2
KSAA 190035Z AUTO 23006KT 10SM CLR 10/M13 A3022 RMK AO2
KSAA 190015Z AUTO 24006KT 10SM CLR 11/M13 A3022 RMK AO2
KSAA 182355Z AUTO 27007G17KT 10SM CLR 14/M13 A3022 RMK AO2
KSAA 182335Z AUTO 27014G18KT 10SM CLR 16/M13 A3023 RMK AO2
KSAA 182315Z AUTO 26012G17KT 10SM CLR 17/M13 A3023 RMK AO2
KSAA 182255Z AUTO 25012G19KT 10SM CLR 18/M13 A3023 RMK AO2
KSAA 182235Z AUTO 26014G19KT 10SM CLR 18/M13 A3023 RMK AO2
KSAA 182215Z AUTO 25015G18KT 10SM CLR 18/M14 A3023 RMK AO2
KSAA 182155Z AUTO 25012G18KT 10SM CLR 19/M13 A3023 RMK AO2
KSAA 182135Z AUTO 25014G19KT 10SM CLR 19/M13 A3023 RMK AO2
KSAA 182115Z AUTO 25015G21KT 10SM CLR 19/M12 A3023 RMK AO2
KSAA 182055Z AUTO 26014G20KT 10SM CLR 19/M12 A3023 RMK AO2
KSAA 182035Z AUTO 27012G20KT 10SM CLR 19/M12 A3024 RMK AO2
KSAA 182015Z AUTO 27016G31KT 10SM CLR 19/M12 A3024 RMK AO2
KSAA 181955Z AUTO 25015G25KT 10SM CLR 19/M13 A3024 RMK AO2
KSAA 181935Z AUTO 26016G21KT 10SM CLR 19/M13 A3025 RMK AO2
KSAA 181915Z AUTO 24014G20KT 10SM CLR 19/M13 A3026 RMK AO2
KSAA 181855Z AUTO 26015G19KT 10SM CLR 19/M12 A3026 RMK AO2
KSAA 181835Z AUTO 25011G20KT 10SM CLR 19/M13 A3026 RMK AO2
KSAA 181815Z AUTO 24014G20KT 10SM CLR 18/M14 A3026 RMK AO2
KSAA 181750Z AUTO 24016G22KT 10SM CLR 18/M13 A3027 RMK AO2
KSAA 181730Z AUTO 26014G21KT 10SM CLR 18/M13 A3027 RMK AO2
KSAA 181715Z AUTO 26013G19KT 10SM CLR 17/M13 A3027 RMK AO2
KSAA 181655Z AUTO 26012G18KT 10SM CLR 17/M13 A3028 RMK AO2
KSAA 181635Z AUTO 26013G17KT 10SM CLR 16/M12 A3027 RMK AO2
KSAA 181615Z AUTO 06003KT 10SM CLR 13/M10 A3027 RMK AO2
KSAA 181555Z AUTO 00000KT 10SM CLR 12/M08 A3027 RMK AO2
KSAA 181535Z AUTO 07004KT 10SM CLR 11/M07 A3026 RMK AO2
KSAA 181515Z AUTO 08003KT 10SM CLR 08/M09 A3028 RMK AO2
KSAA 181455Z AUTO 20005KT 10SM CLR 09/M10 A3026 RMK AO2
KSAA 181435Z AUTO 19016G20KT 10SM CLR 06/M10 A3024 RMK AO2
KSAA 181415Z AUTO 19017KT 10SM CLR 02/M10 A3026 RMK AO2
KSAA 181355Z AUTO 15009KT 10SM CLR 00/M10 A3027 RMK AO2
KSAA 181335Z AUTO 18005KT 10SM CLR 00/M10 A3026 RMK AO2
KSAA 181315Z AUTO 06003KT 10SM CLR 00/M10 A3026 RMK AO2
KSAA 181255Z AUTO 13005KT 10SM CLR 01/M11 A3025 RMK AO2
KSAA 181235Z AUTO 19004KT 10SM CLR 01/M11 A3024 RMK AO2
KSAA 181215Z AUTO 14004G15KT 10SM CLR 00/M08 A3024 RMK AO2
KSAA 181155Z AUTO 16005KT 10SM CLR 01/M11 A3022 RMK AO2
KSAA 181135Z AUTO 16003KT 10SM CLR 01/M10 A3022 RMK AO2
KSAA 181115Z AUTO 22008KT 10SM CLR 01/M11 A3022 RMK AO2
KSAA 181055Z AUTO 31005KT 10SM CLR 01/M09 A3020 RMK AO2
KSAA 181035Z AUTO 22009KT 10SM CLR 05/M11 A3020 RMK AO2
KSAA 181015Z AUTO 21012G15KT 10SM CLR 04/M11 A3020 RMK AO2
KSAA 180955Z AUTO 18003KT 10SM CLR 00/M10 A3020 RMK AO2
KSAA 180935Z AUTO 15004G16KT 10SM CLR 02/M11 A3020 RMK AO2
KSAA 180915Z AUTO 18006KT 10SM CLR 00/M10 A3019 RMK AO2
KSAA 180855Z AUTO 06003KT 10SM CLR 06/M11 A3021 RMK AO2
KSAA 180835Z AUTO 21014KT 10SM CLR 05/M12 A3020 RMK AO2
KSAA 180815Z AUTO 13006KT 10SM CLR 02/M12 A3020 RMK AO2
KSAA 180755Z AUTO 17006KT 10SM CLR 03/M12 A3021 RMK AO2
KSAA 180735Z AUTO 19011KT 10SM CLR 03/M12 A3021 RMK AO2
KSAA 180715Z AUTO 21009G16KT 10SM CLR 04/M12 A3022 RMK AO2
KSAA 180655Z AUTO 25006KT 10SM CLR 06/M12 A3022 RMK AO2
KSAA 180635Z AUTO 23007KT 10SM CLR 07/M13 A3021 RMK AO2
KSAA 180615Z AUTO 24009KT 10SM CLR 06/M13 A3021 RMK AO2